sensor_id;sensor_type;location;lat;lon;timestamp;pressure;altitude;pressure_sealevel;temperature;humidity
43814;BME280;29669;55.706;37.656;2023-12-20T00:02:08;98194.03;;;4.63;79.08
43814;BME280;29669;55.706;37.656;2023-12-20T00:04:36;98195.63;;;4.64;78.97
43814;BME280;29669;55.706;37.656;2023-12-20T00:07:03;98200.94;;;4.63;78.77
43814;BME280;29669;55.706;37.656;2023-12-20T00:09:31;98194.69;;;4.57;78.78
43814;BME280;29669;55.706;37.656;2023-12-20T00:11:58;98204.16;;;4.49;78.79
43814;BME280;29669;55.706;37.656;2023-12-20T00:14:26;98191.00;;;4.44;78.88
43814;BME280;29669;55.706;37.656;2023-12-20T00:16:53;98192.28;;;4.40;78.91
43814;BME280;29669;55.706;37.656;2023-12-20T00:19:20;98200.81;;;4.40;79.08
43814;BME280;29669;55.706;37.656;2023-12-20T00:21:48;98203.53;;;4.47;79.06
43814;BME280;29669;55.706;37.656;2023-12-20T00:24:15;98214.91;;;4.60;78.92
43814;BME280;29669;55.706;37.656;2023-12-20T00:26:43;98218.25;;;4.77;78.85
43814;BME280;29669;55.706;37.656;2023-12-20T00:29:10;98216.94;;;4.89;78.69
43814;BME280;29669;55.706;37.656;2023-12-20T00:31:38;98214.47;;;5.04;78.56
43814;BME280;29669;55.706;37.656;2023-12-20T00:34:05;98194.53;;;5.14;78.47
43814;BME280;29669;55.706;37.656;2023-12-20T00:36:33;98189.53;;;5.20;78.54
43814;BME280;29669;55.706;37.656;2023-12-20T00:39:00;98197.53;;;5.25;78.30
43814;BME280;29669;55.706;37.656;2023-12-20T00:41:28;98205.53;;;5.30;78.33
43814;BME280;29669;55.706;37.656;2023-12-20T00:43:55;98206.00;;;5.34;78.28
43814;BME280;29669;55.706;37.656;2023-12-20T00:46:23;98212.41;;;5.38;78.30
43814;BME280;29669;55.706;37.656;2023-12-20T00:48:50;98209.34;;;5.42;78.18
43814;BME280;29669;55.706;37.656;2023-12-20T00:51:18;98223.66;;;5.45;78.10
43814;BME280;29669;55.706;37.656;2023-12-20T00:53:46;98217.38;;;5.47;77.86
43814;BME280;29669;55.706;37.656;2023-12-20T00:56:16;98211.09;;;5.50;77.83
43814;BME280;29669;55.706;37.656;2023-12-20T00:58:44;98213.50;;;5.51;77.77
43814;BME280;29669;55.706;37.656;2023-12-20T01:01:11;98203.19;;;5.51;77.82
43814;BME280;29669;55.706;37.656;2023-12-20T01:03:38;98205.13;;;5.49;77.83
43814;BME280;29669;55.706;37.656;2023-12-20T01:06:06;98196.78;;;5.47;77.71
43814;BME280;29669;55.706;37.656;2023-12-20T01:08:33;98197.31;;;5.43;77.63
43814;BME280;29669;55.706;37.656;2023-12-20T01:11:04;98187.84;;;5.35;77.65
43814;BME280;29669;55.706;37.656;2023-12-20T01:13:32;98199.44;;;5.31;77.52
43814;BME280;29669;55.706;37.656;2023-12-20T01:15:59;98188.53;;;5.29;77.55
43814;BME280;29669;55.706;37.656;2023-12-20T01:18:27;98184.03;;;5.23;77.59
43814;BME280;29669;55.706;37.656;2023-12-20T01:20:55;98188.91;;;5.18;77.53
43814;BME280;29669;55.706;37.656;2023-12-20T01:23:22;98178.34;;;5.05;77.44
43814;BME280;29669;55.706;37.656;2023-12-20T01:25:50;98176.63;;;4.90;77.30
43814;BME280;29669;55.706;37.656;2023-12-20T01:28:17;98184.19;;;4.75;77.49
43814;BME280;29669;55.706;37.656;2023-12-20T01:30:44;98183.25;;;4.68;77.58
43814;BME280;29669;55.706;37.656;2023-12-20T01:33:12;98192.25;;;4.72;77.69
43814;BME280;29669;55.706;37.656;2023-12-20T01:35:39;98185.63;;;4.77;77.55
43814;BME280;29669;55.706;37.656;2023-12-20T01:38:07;98174.06;;;4.82;77.58
43814;BME280;29669;55.706;37.656;2023-12-20T01:40:34;98173.72;;;4.85;77.57
43814;BME280;29669;55.706;37.656;2023-12-20T01:43:06;98169.56;;;4.84;77.50
43814;BME280;29669;55.706;37.656;2023-12-20T01:45:34;98171.19;;;4.76;77.41
43814;BME280;29669;55.706;37.656;2023-12-20T01:48:02;98177.81;;;4.71;77.55
43814;BME280;29669;55.706;37.656;2023-12-20T01:50:32;98165.41;;;4.74;77.54
43814;BME280;29669;55.706;37.656;2023-12-20T01:53:04;98153.03;;;4.86;77.73
43814;BME280;29669;55.706;37.656;2023-12-20T01:55:34;98142.84;;;4.93;77.44
43814;BME280;29669;55.706;37.656;2023-12-20T01:58:03;98143.38;;;4.88;77.32
43814;BME280;29669;55.706;37.656;2023-12-20T02:00:31;98149.81;;;4.76;77.32
43814;BME280;29669;55.706;37.656;2023-12-20T02:03:03;98159.47;;;4.66;77.23
43814;BME280;29669;55.706;37.656;2023-12-20T02:05:31;98176.88;;;4.56;77.52
43814;BME280;29669;55.706;37.656;2023-12-20T02:07:59;98157.59;;;4.52;77.52
43814;BME280;29669;55.706;37.656;2023-12-20T02:10:28;98167.88;;;4.52;77.45
43814;BME280;29669;55.706;37.656;2023-12-20T02:12:56;98161.13;;;4.51;77.44
43814;BME280;29669;55.706;37.656;2023-12-20T02:15:24;98166.25;;;4.51;77.32
43814;BME280;29669;55.706;37.656;2023-12-20T02:17:52;98162.09;;;4.50;77.34
43814;BME280;29669;55.706;37.656;2023-12-20T02:20:39;98150.66;;;4.60;77.38
43814;BME280;29669;55.706;37.656;2023-12-20T02:23:07;98140.66;;;4.73;77.25
43814;BME280;29669;55.706;37.656;2023-12-20T02:25:34;98143.06;;;4.83;77.22
43814;BME280;29669;55.706;37.656;2023-12-20T02:28:02;98128.25;;;4.85;76.91
43814;BME280;29669;55.706;37.656;2023-12-20T02:30:29;98130.19;;;4.83;76.91
43814;BME280;29669;55.706;37.656;2023-12-20T02:32:59;98133.41;;;4.85;76.90
43814;BME280;29669;55.706;37.656;2023-12-20T02:35:27;98143.84;;;4.92;76.82
43814;BME280;29669;55.706;37.656;2023-12-20T02:37:54;98139.63;;;4.99;76.99
43814;BME280;29669;55.706;37.656;2023-12-20T02:40:21;98135.13;;;5.01;76.68
43814;BME280;29669;55.706;37.656;2023-12-20T02:42:49;98134.13;;;5.02;76.53
43814;BME280;29669;55.706;37.656;2023-12-20T02:45:16;98142.66;;;5.02;76.58
43814;BME280;29669;55.706;37.656;2023-12-20T02:47:44;98141.53;;;5.05;76.80
43814;BME280;29669;55.706;37.656;2023-12-20T02:50:11;98152.09;;;5.10;76.75
43814;BME280;29669;55.706;37.656;2023-12-20T02:52:39;98152.91;;;5.10;76.72
43814;BME280;29669;55.706;37.656;2023-12-20T02:55:06;98149.38;;;5.11;76.63
43814;BME280;29669;55.706;37.656;2023-12-20T02:57:34;98154.19;;;5.14;76.63
43814;BME280;29669;55.706;37.656;2023-12-20T03:00:04;98155.00;;;5.15;76.53
43814;BME280;29669;55.706;37.656;2023-12-20T03:02:35;98138.41;;;5.17;76.56
43814;BME280;29669;55.706;37.656;2023-12-20T03:05:03;98145.16;;;5.18;76.60
43814;BME280;29669;55.706;37.656;2023-12-20T03:07:30;98136.47;;;5.19;76.49
43814;BME280;29669;55.706;37.656;2023-12-20T03:09:57;98127.31;;;5.17;76.45
43814;BME280;29669;55.706;37.656;2023-12-20T03:12:45;98137.47;;;5.18;76.43
43814;BME280;29669;55.706;37.656;2023-12-20T03:15:12;98138.88;;;5.21;76.55
43814;BME280;29669;55.706;37.656;2023-12-20T03:17:40;98135.34;;;5.22;76.42
43814;BME280;29669;55.706;37.656;2023-12-20T03:20:08;98140.50;;;5.22;76.42
43814;BME280;29669;55.706;37.656;2023-12-20T03:22:35;98138.09;;;5.20;76.36
43814;BME280;29669;55.706;37.656;2023-12-20T03:25:03;98137.28;;;5.20;76.31
43814;BME280;29669;55.706;37.656;2023-12-20T03:27:30;98141.63;;;5.19;76.50
43814;BME280;29669;55.706;37.656;2023-12-20T03:29:58;98145.31;;;5.17;76.25
43814;BME280;29669;55.706;37.656;2023-12-20T03:32:25;98150.31;;;5.18;76.45
43814;BME280;29669;55.706;37.656;2023-12-20T03:34:52;98141.97;;;5.16;76.51
43814;BME280;29669;55.706;37.656;2023-12-20T03:37:21;98145.50;;;5.15;76.46
43814;BME280;29669;55.706;37.656;2023-12-20T03:39:49;98142.28;;;5.13;76.38
43814;BME280;29669;55.706;37.656;2023-12-20T03:42:16;98131.53;;;5.10;76.34
43814;BME280;29669;55.706;37.656;2023-12-20T03:44:44;98138.13;;;5.12;76.45
43814;BME280;29669;55.706;37.656;2023-12-20T03:47:11;98137.13;;;5.13;76.47
43814;BME280;29669;55.706;37.656;2023-12-20T03:49:39;98143.09;;;5.14;76.60
43814;BME280;29669;55.706;37.656;2023-12-20T03:52:06;98140.34;;;5.15;76.46
43814;BME280;29669;55.706;37.656;2023-12-20T03:54:37;98145.50;;;5.15;76.42
43814;BME280;29669;55.706;37.656;2023-12-20T03:57:04;98152.06;;;5.18;76.48
43814;BME280;29669;55.706;37.656;2023-12-20T03:59:36;98150.13;;;5.20;76.42
43814;BME280;29669;55.706;37.656;2023-12-20T04:02:04;98158.66;;;5.20;76.43
43814;BME280;29669;55.706;37.656;2023-12-20T04:04:36;98153.34;;;5.22;76.24
43814;BME280;29669;55.706;37.656;2023-12-20T04:07:04;98146.25;;;5.24;76.28
43814;BME280;29669;55.706;37.656;2023-12-20T04:09:32;98150.75;;;5.30;75.97
43814;BME280;29669;55.706;37.656;2023-12-20T04:11:59;98150.75;;;5.30;76.13
43814;BME280;29669;55.706;37.656;2023-12-20T04:39:30;98173.13;;;5.21;75.90
43814;BME280;29669;55.706;37.656;2023-12-20T04:42:01;98169.06;;;5.27;75.84
43814;BME280;29669;55.706;37.656;2023-12-20T04:44:31;98155.56;;;5.25;75.70
43814;BME280;29669;55.706;37.656;2023-12-20T04:47:06;98166.31;;;5.28;75.71
43814;BME280;29669;55.706;37.656;2023-12-20T04:57:37;98171.59;;;5.35;75.24
43814;BME280;29669;55.706;37.656;2023-12-20T05:00:59;98168.56;;;5.31;75.11
43814;BME280;29669;55.706;37.656;2023-12-20T05:03:38;98172.75;;;5.24;74.92
43814;BME280;29669;55.706;37.656;2023-12-20T05:06:34;98166.22;;;5.22;75.03
43814;BME280;29669;55.706;37.656;2023-12-20T05:09:10;98156.72;;;5.22;74.88
43814;BME280;29669;55.706;37.656;2023-12-20T05:11:54;98164.13;;;5.17;74.85
43814;BME280;29669;55.706;37.656;2023-12-20T05:14:40;98164.13;;;5.17;74.91
43814;BME280;29669;55.706;37.656;2023-12-20T05:17:14;98169.63;;;5.14;74.92
43814;BME280;29669;55.706;37.656;2023-12-20T05:19:42;98172.66;;;5.18;74.65
43814;BME280;29669;55.706;37.656;2023-12-20T05:22:21;98172.00;;;5.16;74.81
43814;BME280;29669;55.706;37.656;2023-12-20T05:24:58;98170.88;;;5.18;74.74
43814;BME280;29669;55.706;37.656;2023-12-20T05:27:45;98174.94;;;5.13;74.62
43814;BME280;29669;55.706;37.656;2023-12-20T05:30:20;98178.34;;;5.05;74.81
43814;BME280;29669;55.706;37.656;2023-12-20T05:32:51;98174.50;;;5.01;74.72
43814;BME280;29669;55.706;37.656;2023-12-20T05:35:37;98175.28;;;5.02;74.83
43814;BME280;29669;55.706;37.656;2023-12-20T05:38:12;98184.09;;;5.07;74.70
43814;BME280;29669;55.706;37.656;2023-12-20T05:40:40;98184.41;;;5.12;74.71
43814;BME280;29669;55.706;37.656;2023-12-20T05:43:14;98189.84;;;5.17;74.71
43814;BME280;29669;55.706;37.656;2023-12-20T05:45:47;98186.31;;;5.18;74.47
43814;BME280;29669;55.706;37.656;2023-12-20T05:48:20;98191.94;;;5.14;74.45
43814;BME280;29669;55.706;37.656;2023-12-20T05:51:24;98192.75;;;5.14;74.60
43814;BME280;29669;55.706;37.656;2023-12-20T05:54:01;98203.97;;;5.21;74.37
43814;BME280;29669;55.706;37.656;2023-12-20T05:56:40;98179.25;;;5.20;74.35
43814;BME280;29669;55.706;37.656;2023-12-20T05:59:28;98193.34;;;5.24;74.17
43814;BME280;29669;55.706;37.656;2023-12-20T06:01:58;98191.75;;;5.23;74.22
43814;BME280;29669;55.706;37.656;2023-12-20T06:04:51;98184.84;;;5.24;73.77
43814;BME280;29669;55.706;37.656;2023-12-20T06:07:35;98180.84;;;5.21;74.13
43814;BME280;29669;55.706;37.656;2023-12-20T06:10:08;98193.97;;;5.26;73.92
43814;BME280;29669;55.706;37.656;2023-12-20T06:12:48;98194.47;;;5.30;74.24
43814;BME280;29669;55.706;37.656;2023-12-20T06:19:36;98211.03;;;5.27;74.04
43814;BME280;29669;55.706;37.656;2023-12-20T06:23:08;98201.84;;;5.33;74.01
43814;BME280;29669;55.706;37.656;2023-12-20T06:25:53;98210.47;;;5.40;73.92
43814;BME280;29669;55.706;37.656;2023-12-20T06:28:35;98204.84;;;5.44;73.74
43814;BME280;29669;55.706;37.656;2023-12-20T06:32:11;98209.34;;;5.42;73.52
43814;BME280;29669;55.706;37.656;2023-12-20T06:35:14;98204.50;;;5.47;73.48
43814;BME280;29669;55.706;37.656;2023-12-20T06:38:21;98207.25;;;5.46;73.47
43814;BME280;29669;55.706;37.656;2023-12-20T06:41:16;98211.91;;;5.50;73.40
43814;BME280;29669;55.706;37.656;2023-12-20T06:43:58;98208.34;;;5.51;73.35
43814;BME280;29669;55.706;37.656;2023-12-20T06:47:18;98215.84;;;5.61;73.41
43814;BME280;29669;55.706;37.656;2023-12-20T06:50:20;98198.13;;;5.66;73.16
43814;BME280;29669;55.706;37.656;2023-12-20T06:53:04;98204.53;;;5.70;72.84
43814;BME280;29669;55.706;37.656;2023-12-20T06:55:56;98199.22;;;5.71;72.81
43814;BME280;29669;55.706;37.656;2023-12-20T06:58:56;98205.00;;;5.73;72.88
43814;BME280;29669;55.706;37.656;2023-12-20T07:01:47;98206.94;;;5.71;72.77
43814;BME280;29669;55.706;37.656;2023-12-20T07:04:46;98195.53;;;5.66;72.95
43814;BME280;29669;55.706;37.656;2023-12-20T07:07:41;98210.78;;;5.75;72.70
43814;BME280;29669;55.706;37.656;2023-12-20T07:10:18;98204.34;;;5.71;72.55
43814;BME280;29669;55.706;37.656;2023-12-20T07:13:06;98212.06;;;5.71;72.83
43814;BME280;29669;55.706;37.656;2023-12-20T07:15:48;98203.91;;;5.68;72.52
43814;BME280;29669;55.706;37.656;2023-12-20T07:18:25;98206.81;;;5.65;72.61
43814;BME280;29669;55.706;37.656;2023-12-20T07:21:02;98210.88;;;5.59;72.59
43814;BME280;29669;55.706;37.656;2023-12-20T07:23:40;98216.66;;;5.61;72.63
43814;BME280;29669;55.706;37.656;2023-12-20T07:26:17;98217.28;;;5.63;72.47
43814;BME280;29669;55.706;37.656;2023-12-20T07:28:51;98215.34;;;5.65;72.61
43814;BME280;29669;55.706;37.656;2023-12-20T07:31:26;98218.06;;;5.64;72.43
43814;BME280;29669;55.706;37.656;2023-12-20T07:34:13;98222.91;;;5.67;72.61
43814;BME280;29669;55.706;37.656;2023-12-20T07:36:53;98233.84;;;5.69;72.56
43814;BME280;29669;55.706;37.656;2023-12-20T07:39:40;98240.56;;;5.70;72.58
43814;BME280;29669;55.706;37.656;2023-12-20T07:42:19;98231.75;;;5.64;72.40
43814;BME280;29669;55.706;37.656;2023-12-20T07:45:19;98236.25;;;5.62;72.45
43814;BME280;29669;55.706;37.656;2023-12-20T07:48:35;98229.53;;;5.61;72.57
43814;BME280;29669;55.706;37.656;2023-12-20T07:51:14;98242.25;;;5.55;72.38
43814;BME280;29669;55.706;37.656;2023-12-20T07:54:08;98257.41;;;5.50;72.41
43814;BME280;29669;55.706;37.656;2023-12-20T07:56:45;98242.31;;;5.47;72.51
43814;BME280;29669;55.706;37.656;2023-12-20T07:59:23;98238.75;;;5.48;72.53
43814;BME280;29669;55.706;37.656;2023-12-20T08:02:14;98256.28;;;5.52;72.41
43814;BME280;29669;55.706;37.656;2023-12-20T08:04:55;98255.78;;;5.49;72.30
43814;BME280;29669;55.706;37.656;2023-12-20T08:07:33;98253.06;;;5.50;72.39
43814;BME280;29669;55.706;37.656;2023-12-20T08:10:16;98254.63;;;5.59;72.47
43814;BME280;29669;55.706;37.656;2023-12-20T08:13:12;98264.84;;;5.75;72.33
43814;BME280;29669;55.706;37.656;2023-12-20T08:16:05;98254.53;;;5.84;71.97
43814;BME280;29669;55.706;37.656;2023-12-20T08:18:47;98246.75;;;5.92;72.07
43814;BME280;29669;55.706;37.656;2023-12-20T08:21:36;98248.03;;;5.96;71.65
43814;BME280;29669;55.706;37.656;2023-12-20T08:24:10;98235.94;;;5.96;71.72
43814;BME280;29669;55.706;37.656;2023-12-20T08:26:47;98237.09;;;5.94;71.90
43814;BME280;29669;55.706;37.656;2023-12-20T08:29:17;98251.56;;;5.95;71.91
43814;BME280;29669;55.706;37.656;2023-12-20T08:32:31;98251.88;;;6.00;71.85
43814;BME280;29669;55.706;37.656;2023-12-20T08:35:16;98251.34;;;6.04;71.86
43814;BME280;29669;55.706;37.656;2023-12-20T08:37:51;98240.72;;;6.07;71.52
43814;BME280;29669;55.706;37.656;2023-12-20T08:40:41;98242.75;;;6.12;71.75
43814;BME280;29669;55.706;37.656;2023-12-20T08:43:26;98237.44;;;6.13;71.54
43814;BME280;29669;55.706;37.656;2023-12-20T08:46:02;98235.97;;;6.19;71.72
43814;BME280;29669;55.706;37.656;2023-12-20T08:48:37;98240.50;;;6.17;71.65
43814;BME280;29669;55.706;37.656;2023-12-20T08:51:42;98243.56;;;6.12;71.78
43814;BME280;29669;55.706;37.656;2023-12-20T08:54:14;98236.03;;;6.11;71.54
43814;BME280;29669;55.706;37.656;2023-12-20T08:56:56;98241.16;;;6.11;71.84
43814;BME280;29669;55.706;37.656;2023-12-20T08:59:45;98232.81;;;6.09;71.87
43814;BME280;29669;55.706;37.656;2023-12-20T09:02:31;98238.25;;;6.14;71.96
43814;BME280;29669;55.706;37.656;2023-12-20T09:05:13;98245.97;;;6.14;71.80
43814;BME280;29669;55.706;37.656;2023-12-20T09:07:48;98226.84;;;6.08;71.78
43814;BME280;29669;55.706;37.656;2023-12-20T09:10:26;98243.56;;;6.12;71.71
43814;BME280;29669;55.706;37.656;2023-12-20T09:13:30;98237.59;;;6.12;71.81
43814;BME280;29669;55.706;37.656;2023-12-20T09:16:55;98240.81;;;6.14;72.16
43814;BME280;29669;55.706;37.656;2023-12-20T09:20:11;98235.34;;;6.17;71.96
43814;BME280;29669;55.706;37.656;2023-12-20T09:23:20;98228.91;;;6.13;72.03
43814;BME280;29669;55.706;37.656;2023-12-20T09:26:37;98233.78;;;6.08;71.99
43814;BME280;29669;55.706;37.656;2023-12-20T09:30:19;98227.84;;;6.07;72.44
43814;BME280;29669;55.706;37.656;2023-12-20T09:33:58;98227.59;;;6.17;72.17
43814;BME280;29669;55.706;37.656;2023-12-20T09:37:30;98230.97;;;6.17;72.26
43814;BME280;29669;55.706;37.656;2023-12-20T09:40:44;98227.97;;;6.28;72.15
43814;BME280;29669;55.706;37.656;2023-12-20T09:44:15;98221.88;;;6.29;71.98
43814;BME280;29669;55.706;37.656;2023-12-20T09:51:24;98219.06;;;6.16;72.29
43814;BME280;29669;55.706;37.656;2023-12-20T09:55:05;98216.72;;;6.07;72.13
43814;BME280;29669;55.706;37.656;2023-12-20T09:58:29;98226.03;;;6.08;72.37
43814;BME280;29669;55.706;37.656;2023-12-20T10:02:34;98232.00;;;6.08;72.14
43814;BME280;29669;55.706;37.656;2023-12-20T10:05:45;98222.06;;;6.05;72.12
43814;BME280;29669;55.706;37.656;2023-12-20T10:09:07;98238.28;;;6.06;72.35
43814;BME280;29669;55.706;37.656;2023-12-20T10:12:10;98218.50;;;6.06;72.37
43814;BME280;29669;55.706;37.656;2023-12-20T10:15:01;98231.81;;;6.10;72.25
43814;BME280;29669;55.706;37.656;2023-12-20T10:18:29;98232.91;;;6.15;72.11
43814;BME280;29669;55.706;37.656;2023-12-20T10:21:40;98245.88;;;6.07;71.88
43814;BME280;29669;55.706;37.656;2023-12-20T10:29:36;98251.88;;;6.00;72.39
43814;BME280;29669;55.706;37.656;2023-12-20T10:33:01;98242.53;;;5.99;72.44
43814;BME280;29669;55.706;37.656;2023-12-20T10:40:11;98233.72;;;5.93;72.50
43814;BME280;29669;55.706;37.656;2023-12-20T10:43:48;98238.69;;;5.95;72.67
43814;BME280;29669;55.706;37.656;2023-12-20T10:46:41;98238.69;;;5.95;72.52
43814;BME280;29669;55.706;37.656;2023-12-20T10:50:12;98256.72;;;5.95;72.51
43814;BME280;29669;55.706;37.656;2023-12-20T10:53:09;98231.31;;;5.92;72.64
43814;BME280;29669;55.706;37.656;2023-12-20T10:56:32;98231.31;;;5.92;72.66
43814;BME280;29669;55.706;37.656;2023-12-20T10:59:24;98238.69;;;5.95;72.57
43814;BME280;29669;55.706;37.656;2023-12-20T11:02:23;98246.72;;;6.00;72.66
43814;BME280;29669;55.706;37.656;2023-12-20T11:05:40;98240.22;;;6.04;72.35
43814;BME280;29669;55.706;37.656;2023-12-20T11:09:22;98252.16;;;6.05;72.24
43814;BME280;29669;55.706;37.656;2023-12-20T11:17:27;98248.84;;;6.19;72.05
43814;BME280;29669;55.706;37.656;2023-12-20T11:21:35;98254.31;;;6.16;72.06
43814;BME280;29669;55.706;37.656;2023-12-20T11:25:31;98248.94;;;6.03;72.10
43814;BME280;29669;55.706;37.656;2023-12-20T11:33:39;98247.41;;;5.94;72.41
43814;BME280;29669;55.706;37.656;2023-12-20T11:37:02;98232.75;;;5.94;72.47
43814;BME280;29669;55.706;37.656;2023-12-20T11:44:26;98232.81;;;5.86;72.42
43814;BME280;29669;55.706;37.656;2023-12-20T11:48:30;98233.78;;;5.77;72.62
43814;BME280;29669;55.706;37.656;2023-12-20T11:52:04;98236.88;;;5.72;72.70
43814;BME280;29669;55.706;37.656;2023-12-20T11:56:01;98248.59;;;5.75;72.97
43814;BME280;29669;55.706;37.656;2023-12-20T11:59:31;98251.00;;;5.77;72.89
43814;BME280;29669;55.706;37.656;2023-12-20T12:03:05;98236.69;;;5.74;73.02
43814;BME280;29669;55.706;37.656;2023-12-20T12:06:14;98243.59;;;5.73;73.13
43814;BME280;29669;55.706;37.656;2023-12-20T12:08:59;98239.63;;;5.71;73.28
43814;BME280;29669;55.706;37.656;2023-12-20T12:12:00;98240.06;;;5.74;73.16
43814;BME280;29669;55.706;37.656;2023-12-20T12:14:50;98248.44;;;5.77;73.17
43814;BME280;29669;55.706;37.656;2023-12-20T12:20:45;98242.28;;;5.78;73.30
43814;BME280;29669;55.706;37.656;2023-12-20T12:23:45;98255.47;;;5.83;72.98
43814;BME280;29669;55.706;37.656;2023-12-20T12:26:51;98240.06;;;5.74;73.27
43814;BME280;29669;55.706;37.656;2023-12-20T12:30:03;98255.03;;;5.79;73.23
43814;BME280;29669;55.706;37.656;2023-12-20T12:33:26;98260.66;;;5.74;73.46
43814;BME280;29669;55.706;37.656;2023-12-20T12:36:43;98257.59;;;5.79;73.39
43814;BME280;29669;55.706;37.656;2023-12-20T12:39:26;98263.53;;;5.80;73.33
43814;BME280;29669;55.706;37.656;2023-12-20T12:42:30;98274.19;;;5.77;73.26
43814;BME280;29669;55.706;37.656;2023-12-20T12:46:41;98279.31;;;5.77;73.30
43814;BME280;29669;55.706;37.656;2023-12-20T12:50:22;98280.28;;;5.75;73.18
43814;BME280;29669;55.706;37.656;2023-12-20T13:00:50;98296.56;;;5.68;73.26
43814;BME280;29669;55.706;37.656;2023-12-20T13:04:20;98298.50;;;5.66;73.16
43814;BME280;29669;55.706;37.656;2023-12-20T13:07:06;98300.28;;;5.65;73.44
43814;BME280;29669;55.706;37.656;2023-12-20T13:09:45;98292.56;;;5.65;73.23
43814;BME280;29669;55.706;37.656;2023-12-20T13:12:46;98294.50;;;5.63;73.33
43814;BME280;29669;55.706;37.656;2023-12-20T13:15:29;98290.31;;;5.62;73.23
43814;BME280;29669;55.706;37.656;2023-12-20T13:18:32;98288.41;;;5.56;73.58
43814;BME280;29669;55.706;37.656;2023-12-20T13:21:38;98288.72;;;5.61;73.32
43814;BME280;29669;55.706;37.656;2023-12-20T13:24:21;98285.97;;;5.63;73.29
43814;BME280;29669;55.706;37.656;2023-12-20T13:27:00;98291.94;;;5.63;73.38
43814;BME280;29669;55.706;37.656;2023-12-20T13:29:44;98295.63;;;5.61;73.32
43814;BME280;29669;55.706;37.656;2023-12-20T13:32:18;98295.16;;;5.57;73.30
43814;BME280;29669;55.706;37.656;2023-12-20T13:34:47;98295.53;;;5.54;73.25
43814;BME280;29669;55.706;37.656;2023-12-20T13:37:20;98297.75;;;5.57;73.21
43814;BME280;29669;55.706;37.656;2023-12-20T13:39:59;98304.81;;;5.55;73.07
43814;BME280;29669;55.706;37.656;2023-12-20T13:43:08;98296.81;;;5.50;73.19
43814;BME280;29669;55.706;37.656;2023-12-20T13:46:01;98299.38;;;5.50;73.07
43814;BME280;29669;55.706;37.656;2023-12-20T13:48:31;98311.28;;;5.51;73.15
43814;BME280;29669;55.706;37.656;2023-12-20T13:51:12;98304.22;;;5.45;73.14
43814;BME280;29669;55.706;37.656;2023-12-20T13:53:48;98301.63;;;5.45;73.16
43814;BME280;29669;55.706;37.656;2023-12-20T13:56:22;98297.97;;;5.40;73.28
43814;BME280;29669;55.706;37.656;2023-12-20T13:58:52;98301.16;;;5.42;73.42
43814;BME280;29669;55.706;37.656;2023-12-20T14:01:25;98296.84;;;5.42;73.25
43814;BME280;29669;55.706;37.656;2023-12-20T14:04:03;98308.91;;;5.42;73.46
43814;BME280;29669;55.706;37.656;2023-12-20T14:06:41;98315.66;;;5.43;73.05
43814;BME280;29669;55.706;37.656;2023-12-20T14:09:09;98323.38;;;5.43;73.36
43814;BME280;29669;55.706;37.656;2023-12-20T14:11:41;98316.94;;;5.39;73.15
43814;BME280;29669;55.706;37.656;2023-12-20T14:14:45;98311.81;;;5.39;73.31
43814;BME280;29669;55.706;37.656;2023-12-20T14:17:24;98311.47;;;5.34;73.28
43814;BME280;29669;55.706;37.656;2023-12-20T14:20:00;98310.06;;;5.31;73.45
43814;BME280;29669;55.706;37.656;2023-12-20T14:22:36;98322.28;;;5.29;73.36
43814;BME280;29669;55.706;37.656;2023-12-20T14:25:13;98318.44;;;5.25;73.53
43814;BME280;29669;55.706;37.656;2023-12-20T14:27:53;98327.75;;;5.26;73.61
43814;BME280;29669;55.706;37.656;2023-12-20T14:30:36;98321.81;;;5.26;73.74
43814;BME280;29669;55.706;37.656;2023-12-20T14:33:30;98330.94;;;5.28;73.55
43814;BME280;29669;55.706;37.656;2023-12-20T14:36:12;98335.78;;;5.31;73.59
43814;BME280;29669;55.706;37.656;2023-12-20T14:39:00;98332.69;;;5.36;73.66
43814;BME280;29669;55.706;37.656;2023-12-20T14:41:44;98324.03;;;5.37;73.47
43814;BME280;29669;55.706;37.656;2023-12-20T14:44:20;98333.16;;;5.39;73.33
43814;BME280;29669;55.706;37.656;2023-12-20T14:47:34;98334.78;;;5.40;73.50
43814;BME280;29669;55.706;37.656;2023-12-20T14:50:11;98327.72;;;5.34;73.51
43814;BME280;29669;55.706;37.656;2023-12-20T14:52:45;98339.00;;;5.33;73.55
43814;BME280;29669;55.706;37.656;2023-12-20T14:55:30;98323.69;;;5.32;73.54
43814;BME280;29669;55.706;37.656;2023-12-20T14:58:00;98316.78;;;5.32;73.50
43814;BME280;29669;55.706;37.656;2023-12-20T15:01:01;98326.13;;;5.33;73.52
43814;BME280;29669;55.706;37.656;2023-12-20T15:03:37;98325.16;;;5.34;73.36
43814;BME280;29669;55.706;37.656;2023-12-20T15:06:17;98325.78;;;5.36;73.39
43814;BME280;29669;55.706;37.656;2023-12-20T15:08:52;98333.16;;;5.39;73.38
43814;BME280;29669;55.706;37.656;2023-12-20T15:11:26;98337.06;;;5.35;73.42
43814;BME280;29669;55.706;37.656;2023-12-20T15:14:15;98341.88;;;5.38;73.19
43814;BME280;29669;55.706;37.656;2023-12-20T15:16:49;98344.09;;;5.41;73.06
43814;BME280;29669;55.706;37.656;2023-12-20T15:19:25;98345.72;;;5.42;73.05
43814;BME280;29669;55.706;37.656;2023-12-20T15:22:03;98334.44;;;5.43;72.86
43814;BME280;29669;55.706;37.656;2023-12-20T15:24:38;98338.00;;;5.42;73.16
43814;BME280;29669;55.706;37.656;2023-12-20T15:27:12;98334.50;;;5.35;73.17
43814;BME280;29669;55.706;37.656;2023-12-20T15:29:43;98322.91;;;5.31;73.14
43814;BME280;29669;55.706;37.656;2023-12-20T15:32:46;98337.84;;;5.36;73.01
43814;BME280;29669;55.706;37.656;2023-12-20T15:35:43;98337.06;;;5.35;72.99
43814;BME280;29669;55.706;37.656;2023-12-20T15:38:59;98337.06;;;5.27;73.21
43814;BME280;29669;55.706;37.656;2023-12-20T15:42:28;98341.59;;;5.25;73.25
43814;BME280;29669;55.706;37.656;2023-12-20T15:46:10;98345.72;;;5.34;73.10
43814;BME280;29669;55.706;37.656;2023-12-20T15:49:40;98340.94;;;5.31;73.06
43814;BME280;29669;55.706;37.656;2023-12-20T15:52:56;98364.88;;;5.32;73.13
43814;BME280;29669;55.706;37.656;2023-12-20T15:56:36;98368.72;;;5.36;72.94